Time;durP1;ratioP1;P1;durP2;ratioP2;P2;SDS_P1;SDS_P2;PMS_P1;PMS_P2;Temp;Humidity;BMP_temperature;BMP_pressure;BME280_temperature;BME280_humidity;BME280_pressure;Samples;Min_cycle;Max_cycle;Signal;HPM_P1;HPM_P2
2022/09/30 00:02:20;;;;;;;;;;;15.40;94.10;;;;;;5011359;28;20271;-24
2022/09/30 00:04:45;;;;;;;;;;;15.40;94.40;;;;;;5011994;28;19913;-24
2022/09/30 00:07:11;;;;;;;;;;;15.40;94.10;;;;;;5011908;28;19905;-24
2022/09/30 00:09:36;;;;;;;;;;;15.40;94.10;;;;;;5011528;28;19959;-24
2022/09/30 00:12:02;;;;;;;;;;;15.40;94.10;;;;;;5011318;28;19906;-24
2022/09/30 00:14:27;;;;;;;;;;;15.40;94.10;;;;;;5010116;28;20267;-24
2022/09/30 00:16:53;;;;;;;;;;;15.40;94.10;;;;;;5011414;28;19909;-24
2022/09/30 00:19:19;;;;;;;;;;;15.40;94.10;;;;;;5011332;28;19916;-24
2022/09/30 00:21:44;;;;;;;;;;;15.40;94.10;;;;;;5011417;28;20363;-24
2022/09/30 00:24:10;;;;;;;;;;;15.40;94.10;;;;;;5011440;28;20382;-24
2022/09/30 00:26:35;;;;;;;;;;;15.40;94.10;;;;;;5013418;28;19985;-24
2022/09/30 00:29:01;;;;;;;;;;;15.40;94.10;;;;;;5014866;28;20145;-24
2022/09/30 00:31:28;;;;;;;;;;;15.40;94.10;;;;;;5014756;28;19905;-24
2022/09/30 00:34:05;;;;;;;;;;;15.40;94.10;;;;;;5015089;28;19909;-24
2022/09/30 00:36:39;;;;;;;;;;;15.40;94.10;;;;;;5014905;28;19927;-24
2022/09/30 00:39:05;;;;;;;;;;;15.40;94.10;;;;;;5014737;28;19909;-24
2022/09/30 00:41:31;;;;;;;;;;;15.40;94.10;;;;;;5015121;28;19909;-24
2022/09/30 00:43:56;;;;;;;;;;;15.40;94.20;;;;;;5014770;28;19906;-24
2022/09/30 00:46:25;;;;;;;;;;;15.40;94.10;;;;;;5013351;28;19905;-24
2022/09/30 00:48:52;;;;;;;;;;;15.40;94.20;;;;;;5014754;28;19910;-24
2022/09/30 00:51:32;;;;;;;;;;;15.40;94.20;;;;;;5014718;28;19956;-23
2022/09/30 00:54:00;;;;;;;;;;;15.30;94.10;;;;;;5014687;28;19905;-23
2022/09/30 00:56:28;;;;;;;;;;;15.40;94.20;;;;;;5014530;28;20269;-23
2022/09/30 00:58:59;;;;;;;;;;;15.40;94.10;;;;;;5014644;28;20363;-23
2022/09/30 01:01:25;;;;;;;;;;;15.30;94.10;;;;;;5014319;28;19909;-23
2022/09/30 01:03:53;;;;;;;;;;;15.30;94.10;;;;;;5015695;28;20393;-23
2022/09/30 01:06:20;;;;;;;;;;;15.40;94.20;;;;;;5014734;28;19959;-23
2022/09/30 01:08:46;;;;;;;;;;;15.40;94.20;;;;;;5014494;28;19913;-23
2022/09/30 01:11:13;;;;;;;;;;;15.40;94.10;;;;;;5014209;28;19909;-23
2022/09/30 01:13:40;;;;;;;;;;;15.40;94.20;;;;;;5014332;28;19996;-23
2022/09/30 01:16:24;;;;;;;;;;;15.30;94.10;;;;;;5014489;28;19979;-23
2022/09/30 01:18:58;;;;;;;;;;;15.40;94.20;;;;;;5014139;28;19932;-24
2022/09/30 01:21:26;;;;;;;;;;;15.30;94.10;;;;;;5014149;28;19912;-23
2022/09/30 01:24:07;;;;;;;;;;;15.40;94.10;;;;;;5014261;28;19913;-23
2022/09/30 01:26:38;;;;;;;;;;;15.40;94.20;;;;;;5014901;28;20267;-24
2022/09/30 01:29:07;;;;;;;;;;;15.30;94.10;;;;;;5013946;28;19935;-24
2022/09/30 01:31:42;;;;;;;;;;;15.40;94.20;;;;;;5012795;28;19909;-23
2022/09/30 01:34:28;;;;;;;;;;;15.30;94.10;;;;;;5014361;28;20453;-23
2022/09/30 01:37:01;;;;;;;;;;;15.30;94.10;;;;;;5013256;28;19905;-23
2022/09/30 01:39:36;;;;;;;;;;;15.30;94.10;;;;;;5013933;28;19910;-23
2022/09/30 01:42:20;;;;;;;;;;;15.30;94.10;;;;;;5013872;28;20052;-23
2022/09/30 01:45:06;;;;;;;;;;;15.30;94.10;;;;;;5013822;28;19909;-23
2022/09/30 01:47:35;;;;;;;;;;;15.30;94.10;;;;;;5012614;28;19952;-23
2022/09/30 01:50:07;;;;;;;;;;;15.30;94.20;;;;;;5013241;28;19916;-23
2022/09/30 01:52:33;;;;;;;;;;;15.30;94.20;;;;;;5013574;28;19968;-23
2022/09/30 01:55:07;;;;;;;;;;;15.30;94.20;;;;;;5013833;28;20379;-23
2022/09/30 01:57:33;;;;;;;;;;;15.30;94.20;;;;;;5013889;28;19949;-23
2022/09/30 02:00:03;;;;;;;;;;;15.30;94.20;;;;;;5013435;28;19909;-23
2022/09/30 02:02:30;;;;;;;;;;;15.30;94.20;;;;;;5013201;28;19914;-23
2022/09/30 02:05:01;;;;;;;;;;;15.30;94.20;;;;;;5013752;28;20404;-23
2022/09/30 02:07:30;;;;;;;;;;;15.30;94.20;;;;;;5013940;28;19905;-23
2022/09/30 02:10:01;;;;;;;;;;;15.30;94.20;;;;;;5011752;28;19917;-23
2022/09/30 02:12:31;;;;;;;;;;;15.30;94.20;;;;;;5013111;28;19905;-23
2022/09/30 02:15:02;;;;;;;;;;;15.30;94.20;;;;;;5013189;28;19909;-23
2022/09/30 02:17:32;;;;;;;;;;;15.30;94.20;;;;;;5013290;28;19909;-23
2022/09/30 02:19:58;;;;;;;;;;;15.30;94.20;;;;;;5012816;28;19912;-23
2022/09/30 02:22:27;;;;;;;;;;;15.30;94.20;;;;;;5012873;28;19909;-23
2022/09/30 02:24:58;;;;;;;;;;;15.30;94.20;;;;;;5012959;28;19905;-23
2022/09/30 02:27:27;;;;;;;;;;;15.30;94.20;;;;;;5012724;28;19932;-23
2022/09/30 02:29:55;;;;;;;;;;;15.30;94.30;;;;;;5012629;28;19905;-23
2022/09/30 02:32:25;;;;;;;;;;;15.30;94.30;;;;;;5012752;28;19909;-23
2022/09/30 02:34:56;;;;;;;;;;;15.30;94.20;;;;;;5011701;28;19910;-23
2022/09/30 02:37:25;;;;;;;;;;;15.30;94.30;;;;;;5012925;28;19924;-23
2022/09/30 02:39:56;;;;;;;;;;;15.30;94.30;;;;;;5012432;28;19909;-23
2022/09/30 02:42:27;;;;;;;;;;;15.30;94.30;;;;;;5013206;28;19928;-23
2022/09/30 02:44:55;;;;;;;;;;;15.30;94.20;;;;;;5013407;28;19906;-23
2022/09/30 02:47:35;;;;;;;;;;;15.30;94.20;;;;;;5012832;28;19905;-23
2022/09/30 02:50:03;;;;;;;;;;;15.30;94.20;;;;;;5012352;28;19912;-23
2022/09/30 02:52:37;;;;;;;;;;;15.30;94.20;;;;;;5012968;28;19976;-23
2022/09/30 02:55:05;;;;;;;;;;;15.30;94.30;;;;;;5012837;28;20378;-23
2022/09/30 02:57:46;;;;;;;;;;;15.30;94.30;;;;;;5012618;28;20420;-23
2022/09/30 03:00:12;;;;;;;;;;;15.20;94.20;;;;;;5012590;28;19909;-23
2022/09/30 03:02:38;;;;;;;;;;;15.30;94.20;;;;;;5012357;28;19913;-23
2022/09/30 03:05:04;;;;;;;;;;;15.20;94.20;;;;;;5011338;28;19912;-23
2022/09/30 03:07:30;;;;;;;;;;;15.30;94.30;;;;;;5012421;28;19979;-23
2022/09/30 03:09:57;;;;;;;;;;;15.20;94.20;;;;;;5012875;28;19911;-23
2022/09/30 03:12:32;;;;;;;;;;;15.30;94.20;;;;;;5013177;28;19912;-23
2022/09/30 03:15:10;;;;;;;;;;;15.20;94.20;;;;;;5013188;28;19910;-23
2022/09/30 03:17:44;;;;;;;;;;;15.30;94.20;;;;;;5011165;28;20007;-23
2022/09/30 03:20:22;;;;;;;;;;;15.30;94.20;;;;;;5012440;28;20363;-23
2022/09/30 03:23:11;;;;;;;;;;;15.30;94.30;;;;;;5012242;28;19951;-23
2022/09/30 03:26:01;;;;;;;;;;;15.30;94.20;;;;;;5009081;28;19905;-23
2022/09/30 03:28:33;;;;;;;;;;;15.20;94.20;;;;;;5012017;28;20429;-23
2022/09/30 03:30:59;;;;;;;;;;;15.20;94.20;;;;;;5011181;28;19912;-23
2022/09/30 03:33:28;;;;;;;;;;;15.20;94.20;;;;;;5012447;28;19909;-23
2022/09/30 03:35:57;;;;;;;;;;;15.20;94.20;;;;;;5012262;28;20039;-23
2022/09/30 03:38:28;;;;;;;;;;;15.20;94.20;;;;;;5012096;28;19914;-23
2022/09/30 03:41:01;;;;;;;;;;;15.20;94.20;;;;;;5010702;28;20389;-23
2022/09/30 03:43:38;;;;;;;;;;;15.20;94.20;;;;;;5012276;28;19910;-23
2022/09/30 03:46:17;;;;;;;;;;;15.20;94.20;;;;;;5011868;28;19916;-23
2022/09/30 03:48:44;;;;;;;;;;;15.20;94.20;;;;;;5011798;28;19905;-23
2022/09/30 03:51:09;;;;;;;;;;;15.20;94.20;;;;;;5011898;28;19916;-23
2022/09/30 03:53:42;;;;;;;;;;;15.20;94.30;;;;;;5010444;28;20313;-23
2022/09/30 03:56:07;;;;;;;;;;;15.20;94.20;;;;;;5011869;28;19912;-23
2022/09/30 03:58:33;;;;;;;;;;;15.20;94.30;;;;;;5011728;28;20003;-23
2022/09/30 04:00:59;;;;;;;;;;;15.20;94.30;;;;;;5013063;28;20003;-23
2022/09/30 04:03:26;;;;;;;;;;;15.20;94.30;;;;;;5015652;28;20008;-23
2022/09/30 04:05:52;;;;;;;;;;;15.20;94.30;;;;;;5016753;28;19999;-23
2022/09/30 04:08:18;;;;;;;;;;;15.20;94.20;;;;;;5018424;28;19949;-23
2022/09/30 04:10:43;;;;;;;;;;;15.20;94.30;;;;;;5016728;28;19911;-23
2022/09/30 04:13:09;;;;;;;;;;;15.20;94.30;;;;;;5015831;28;19913;-24
2022/09/30 04:15:35;;;;;;;;;;;15.20;94.30;;;;;;5015438;28;19910;-24
2022/09/30 04:18:01;;;;;;;;;;;15.20;94.30;;;;;;5014159;28;19944;-23
2022/09/30 04:20:28;;;;;;;;;;;15.20;94.30;;;;;;5015354;28;19905;-24
2022/09/30 04:22:55;;;;;;;;;;;15.20;94.30;;;;;;5015240;28;20454;-24
2022/09/30 04:25:21;;;;;;;;;;;15.20;94.30;;;;;;5015559;28;20316;-24
2022/09/30 04:27:46;;;;;;;;;;;15.20;94.30;;;;;;5015097;28;19906;-23
2022/09/30 04:30:12;;;;;;;;;;;15.20;94.30;;;;;;5014879;28;20093;-23
2022/09/30 04:32:41;;;;;;;;;;;15.20;94.30;;;;;;5014949;28;19906;-23
2022/09/30 04:35:06;;;;;;;;;;;15.20;94.30;;;;;;5015083;28;20294;-23
2022/09/30 04:37:32;;;;;;;;;;;15.20;94.30;;;;;;5014898;28;19909;-23
2022/09/30 04:39:58;;;;;;;;;;;15.20;94.30;;;;;;5014782;28;19932;-23
2022/09/30 04:42:24;;;;;;;;;;;15.20;94.30;;;;;;5014824;28;19906;-23
2022/09/30 04:44:50;;;;;;;;;;;15.20;94.30;;;;;;5014695;28;19906;-23
2022/09/30 04:47:15;;;;;;;;;;;15.20;94.30;;;;;;5013412;28;20397;-23
2022/09/30 04:49:41;;;;;;;;;;;15.20;94.30;;;;;;5015468;28;19933;-23
2022/09/30 04:52:06;;;;;;;;;;;15.20;94.30;;;;;;5014988;28;19960;-23
2022/09/30 04:54:32;;;;;;;;;;;15.20;94.30;;;;;;5015395;28;19909;-24
2022/09/30 04:56:57;;;;;;;;;;;15.10;94.30;;;;;;5013356;28;19984;-24
2022/09/30 04:59:23;;;;;;;;;;;15.20;94.30;;;;;;5013005;28;19931;-24
2022/09/30 05:01:48;;;;;;;;;;;15.20;94.30;;;;;;5014239;28;20385;-24
2022/09/30 05:04:15;;;;;;;;;;;15.20;94.30;;;;;;5013320;28;19905;-24
2022/09/30 05:06:41;;;;;;;;;;;15.10;94.20;;;;;;5014374;28;19905;-24
2022/09/30 05:09:06;;;;;;;;;;;15.20;94.30;;;;;;5012764;28;20000;-24
2022/09/30 05:11:32;;;;;;;;;;;15.20;94.30;;;;;;5014167;28;19905;-24
2022/09/30 05:13:57;;;;;;;;;;;15.20;94.30;;;;;;5014362;28;20333;-23
2022/09/30 05:16:23;;;;;;;;;;;15.20;94.30;;;;;;5014110;28;19962;-23
2022/09/30 05:18:48;;;;;;;;;;;15.20;94.30;;;;;;5014048;28;20387;-23
2022/09/30 05:21:15;;;;;;;;;;;15.20;94.30;;;;;;5014171;28;20291;-23
2022/09/30 05:23:41;;;;;;;;;;;15.20;94.30;;;;;;5014156;28;19927;-23
2022/09/30 05:26:06;;;;;;;;;;;15.20;94.30;;;;;;5014008;28;19964;-23
2022/09/30 05:28:32;;;;;;;;;;;15.20;94.30;;;;;;5014171;28;19906;-23
2022/09/30 05:30:59;;;;;;;;;;;15.20;94.30;;;;;;5013741;28;19906;-23
2022/09/30 05:33:25;;;;;;;;;;;15.20;94.30;;;;;;5013931;28;19928;-23
2022/09/30 05:35:50;;;;;;;;;;;15.20;94.30;;;;;;5013876;28;19928;-23
2022/09/30 05:38:16;;;;;;;;;;;15.20;94.30;;;;;;5014565;28;20414;-23
2022/09/30 05:40:41;;;;;;;;;;;15.20;94.30;;;;;;5013863;28;19912;-23
2022/09/30 05:43:08;;;;;;;;;;;15.20;94.20;;;;;;5013803;28;19947;-23
2022/09/30 05:45:34;;;;;;;;;;;15.20;94.30;;;;;;5014152;28;19916;-23
2022/09/30 05:48:00;;;;;;;;;;;15.20;94.30;;;;;;5013590;28;19910;-23
2022/09/30 05:50:25;;;;;;;;;;;15.10;94.20;;;;;;5013504;28;19906;-23
2022/09/30 05:52:51;;;;;;;;;;;15.20;94.30;;;;;;5013652;28;20359;-23
2022/09/30 05:55:17;;;;;;;;;;;15.10;94.30;;;;;;5014230;28;19945;-23
2022/09/30 05:57:45;;;;;;;;;;;15.10;94.30;;;;;;5013404;28;19909;-23
2022/09/30 06:00:10;;;;;;;;;;;15.10;94.30;;;;;;5013410;28;19952;-23
2022/09/30 06:02:37;;;;;;;;;;;15.10;94.30;;;;;;5011923;28;19957;-23
2022/09/30 06:05:03;;;;;;;;;;;15.10;94.30;;;;;;5013541;28;20418;-23
2022/09/30 06:07:29;;;;;;;;;;;15.10;94.30;;;;;;5013359;28;20393;-23
2022/09/30 06:09:54;;;;;;;;;;;15.10;94.30;;;;;;5013296;28;19953;-23
2022/09/30 06:12:20;;;;;;;;;;;15.10;94.30;;;;;;5013200;28;19920;-23
2022/09/30 06:14:45;;;;;;;;;;;15.10;94.40;;;;;;5013190;28;20004;-23
2022/09/30 06:17:11;;;;;;;;;;;15.10;94.40;;;;;;5011578;28;20005;-23
2022/09/30 06:19:36;;;;;;;;;;;15.10;94.40;;;;;;5012918;28;19909;-22
2022/09/30 06:22:02;;;;;;;;;;;15.10;94.40;;;;;;5012791;28;19905;-23
2022/09/30 06:24:28;;;;;;;;;;;15.10;94.40;;;;;;5012428;28;20379;-23
2022/09/30 06:26:53;;;;;;;;;;;15.10;94.40;;;;;;5013261;28;19906;-23
2022/09/30 06:29:19;;;;;;;;;;;15.10;94.40;;;;;;5012770;28;19937;-23
2022/09/30 06:31:44;;;;;;;;;;;15.10;94.40;;;;;;5012803;28;19960;-23
2022/09/30 06:34:10;;;;;;;;;;;15.10;94.40;;;;;;5012998;28;19906;-23
2022/09/30 06:36:35;;;;;;;;;;;15.10;94.40;;;;;;5012716;28;19975;-23
2022/09/30 06:39:02;;;;;;;;;;;15.10;94.40;;;;;;5012546;28;19915;-23
2022/09/30 06:41:28;;;;;;;;;;;15.10;94.40;;;;;;5012500;28;20004;-24
2022/09/30 06:43:55;;;;;;;;;;;15.10;94.40;;;;;;5012630;28;20333;-23
2022/09/30 06:46:22;;;;;;;;;;;15.10;94.40;;;;;;5012571;28;19905;-23
2022/09/30 06:48:50;;;;;;;;;;;15.10;94.40;;;;;;5012285;28;20333;-23
2022/09/30 06:51:15;;;;;;;;;;;15.10;94.40;;;;;;5012408;28;19905;-23
2022/09/30 06:53:42;;;;;;;;;;;15.10;94.40;;;;;;5012447;28;19912;-23
2022/09/30 06:56:07;;;;;;;;;;;15.10;94.40;;;;;;5012346;28;19905;-23
2022/09/30 06:58:33;;;;;;;;;;;15.10;94.40;;;;;;5012205;28;19913;-23
2022/09/30 07:01:05;;;;;;;;;;;15.10;94.40;;;;;;5012053;28;19905;-24
2022/09/30 07:03:32;;;;;;;;;;;15.10;94.40;;;;;;5013037;28;20002;-23
2022/09/30 07:06:01;;;;;;;;;;;15.10;94.50;;;;;;5012432;28;19905;-23
2022/09/30 07:08:30;;;;;;;;;;;15.10;94.40;;;;;;5012276;28;19956;-23
2022/09/30 07:10:57;;;;;;;;;;;15.10;94.50;;;;;;5012317;28;19909;-23
2022/09/30 07:13:22;;;;;;;;;;;15.10;94.50;;;;;;5013404;28;19909;-23
2022/09/30 07:15:50;;;;;;;;;;;15.10;94.50;;;;;;5013038;28;19909;-23
2022/09/30 07:18:19;;;;;;;;;;;15.10;94.50;;;;;;5012135;28;19960;-23
2022/09/30 07:20:52;;;;;;;;;;;15.10;94.50;;;;;;5011878;28;20393;-23
2022/09/30 07:23:18;;;;;;;;;;;15.10;94.50;;;;;;5011924;28;19912;-23
2022/09/30 07:26:02;;;;;;;;;;;15.10;94.50;;;;;;5013133;28;20260;-23
2022/09/30 07:28:30;;;;;;;;;;;15.10;94.50;;;;;;5010644;28;19992;-24
2022/09/30 07:30:57;;;;;;;;;;;15.10;94.50;;;;;;5011795;28;20382;-24
2022/09/30 07:33:25;;;;;;;;;;;15.10;94.50;;;;;;5012013;28;19906;-24
2022/09/30 07:35:54;;;;;;;;;;;15.10;94.50;;;;;;5013082;28;20007;-24
2022/09/30 07:38:20;;;;;;;;;;;15.10;94.50;;;;;;5014547;28;19913;-24
2022/09/30 07:40:57;;;;;;;;;;;15.00;94.50;;;;;;5015862;28;20164;-24
2022/09/30 07:43:23;;;;;;;;;;;15.00;94.50;;;;;;5015975;28;19921;-24
2022/09/30 07:45:49;;;;;;;;;;;15.00;94.60;;;;;;5015842;28;19960;-24
2022/09/30 07:50:58;;;;;;;;;;;15.00;94.60;;;;;;5015586;28;19912;-24
2022/09/30 07:53:24;;;;;;;;;;;15.00;94.60;;;;;;5015713;28;19953;-24
2022/09/30 07:55:49;;;;;;;;;;;15.00;94.60;;;;;;5015608;28;19992;-24
2022/09/30 07:58:15;;;;;;;;;;;15.00;94.60;;;;;;5015520;28;19920;-24
2022/09/30 08:00:41;;;;;;;;;;;15.00;94.60;;;;;;5014292;28;19948;-24
2022/09/30 08:03:07;;;;;;;;;;;15.00;94.60;;;;;;5015363;28;19917;-24
2022/09/30 08:05:37;;;;;;;;;;;15.00;94.60;;;;;;5015589;28;19906;-24
2022/09/30 08:08:03;;;;;;;;;;;15.00;94.60;;;;;;5014066;28;19912;-24
2022/09/30 08:10:32;;;;;;;;;;;15.00;94.60;;;;;;5015238;28;19905;-24
2022/09/30 08:12:57;;;;;;;;;;;15.00;95.00;;;;;;5015288;28;19905;-24
2022/09/30 08:15:23;;;;;;;;;;;15.00;94.60;;;;;;5015163;28;19913;-24
2022/09/30 08:17:48;;;;;;;;;;;15.00;94.60;;;;;;5013745;28;20263;-24
2022/09/30 08:20:14;;;;;;;;;;;15.00;94.60;;;;;;5015002;28;20259;-24
2022/09/30 08:22:39;;;;;;;;;;;14.90;95.10;;;;;;5015098;28;19905;-24
2022/09/30 08:25:05;;;;;;;;;;;14.80;95.30;;;;;;5015191;28;19999;-24
2022/09/30 08:27:31;;;;;;;;;;;14.70;95.30;;;;;;5015162;28;20355;-24
2022/09/30 08:29:56;;;;;;;;;;;14.70;95.40;;;;;;5014880;28;19937;-24
2022/09/30 08:32:22;;;;;;;;;;;14.80;95.40;;;;;;5015071;28;19960;-24
2022/09/30 08:34:47;;;;;;;;;;;14.80;95.40;;;;;;5015161;28;19936;-24
2022/09/30 08:37:13;;;;;;;;;;;14.80;95.30;;;;;;5014775;28;19911;-24
2022/09/30 08:39:38;;;;;;;;;;;14.80;95.20;;;;;;5015059;28;19912;-24
2022/09/30 08:42:12;;;;;;;;;;;14.90;95.20;;;;;;5014776;28;19940;-24
2022/09/30 08:44:41;;;;;;;;;;;14.90;95.10;;;;;;5014773;28;19916;-23
2022/09/30 08:47:07;;;;;;;;;;;14.90;95.10;;;;;;5014546;28;19979;-23
2022/09/30 08:49:38;;;;;;;;;;;15.00;95.10;;;;;;5014840;28;19905;-24
2022/09/30 08:52:10;;;;;;;;;;;15.00;95.00;;;;;;5015108;28;20294;-24
2022/09/30 08:54:35;;;;;;;;;;;15.00;95.00;;;;;;5015031;28;19905;-23
2022/09/30 08:57:02;;;;;;;;;;;15.00;94.90;;;;;;5014464;28;19905;-24
2022/09/30 08:59:33;;;;;;;;;;;15.10;94.90;;;;;;5012871;28;19909;-23
2022/09/30 09:02:19;;;;;;;;;;;15.10;94.90;;;;;;5014233;28;19924;-23
2022/09/30 09:04:45;;;;;;;;;;;15.10;94.90;;;;;;5010311;28;20272;-24
2022/09/30 09:07:11;;;;;;;;;;;15.10;94.80;;;;;;5014382;28;20327;-24
2022/09/30 09:09:42;;;;;;;;;;;15.20;94.80;;;;;;5014622;28;19952;-24
2022/09/30 09:12:26;;;;;;;;;;;15.20;94.80;;;;;;5014402;28;19910;-23
2022/09/30 09:15:06;;;;;;;;;;;15.20;94.70;;;;;;5014431;28;19905;-23
2022/09/30 09:17:47;;;;;;;;;;;15.30;94.70;;;;;;5014066;28;20371;-23
2022/09/30 09:20:15;;;;;;;;;;;15.40;94.60;;;;;;5014283;28;19905;-23
2022/09/30 09:22:42;;;;;;;;;;;15.40;94.50;;;;;;5014069;28;20386;-23
2022/09/30 09:25:13;;;;;;;;;;;15.50;94.50;;;;;;5014220;28;19905;-23
2022/09/30 09:27:50;;;;;;;;;;;15.50;94.40;;;;;;5014203;28;19987;-24
2022/09/30 09:30:18;;;;;;;;;;;15.50;94.00;;;;;;5013620;28;19912;-24
2022/09/30 09:32:48;;;;;;;;;;;15.40;94.20;;;;;;5013798;28;19906;-23
2022/09/30 09:35:15;;;;;;;;;;;15.50;94.30;;;;;;5013857;28;20407;-23
2022/09/30 09:40:56;;;;;;;;;;;15.60;94.20;;;;;;5013451;28;19917;-23
2022/09/30 09:43:29;;;;;;;;;;;15.70;94.10;;;;;;5012377;28;19924;-23
2022/09/30 09:46:07;;;;;;;;;;;15.70;94.10;;;;;;5013652;28;20451;-23
2022/09/30 09:48:34;;;;;;;;;;;15.70;94.00;;;;;;5013547;28;19905;-23
2022/09/30 09:51:05;;;;;;;;;;;15.80;94.00;;;;;;5013500;28;19905;-23
2022/09/30 09:53:41;;;;;;;;;;;15.90;94.00;;;;;;5013641;28;19974;-23
2022/09/30 09:56:17;;;;;;;;;;;15.90;93.90;;;;;;5013501;28;19941;-23
2022/09/30 09:59:02;;;;;;;;;;;15.90;93.90;;;;;;5012296;28;19918;-23
2022/09/30 10:01:32;;;;;;;;;;;16.00;93.90;;;;;;5012977;28;19917;-23
2022/09/30 10:04:14;;;;;;;;;;;16.00;93.80;;;;;;5011905;28;20375;-23
2022/09/30 10:06:43;;;;;;;;;;;16.10;93.80;;;;;;5013200;28;19987;-23
2022/09/30 10:09:21;;;;;;;;;;;16.10;93.80;;;;;;5012985;28;19911;-23
2022/09/30 10:11:46;;;;;;;;;;;16.10;93.70;;;;;;5013324;28;20420;-23
2022/09/30 10:14:16;;;;;;;;;;;16.10;93.80;;;;;;5013198;28;19909;-23
2022/09/30 10:16:42;;;;;;;;;;;16.10;93.70;;;;;;5014502;28;19905;-23
2022/09/30 10:19:20;;;;;;;;;;;16.10;93.80;;;;;;5014834;28;19910;-24
2022/09/30 10:21:46;;;;;;;;;;;16.10;93.70;;;;;;5014404;28;19914;-23
2022/09/30 10:24:17;;;;;;;;;;;16.10;93.70;;;;;;5013072;28;19909;-23
2022/09/30 10:26:43;;;;;;;;;;;16.10;93.70;;;;;;5013244;28;19916;-23
2022/09/30 10:29:22;;;;;;;;;;;16.10;93.70;;;;;;5012895;28;19905;-24
2022/09/30 10:31:50;;;;;;;;;;;16.10;93.80;;;;;;5012867;28;19909;-23
2022/09/30 10:34:29;;;;;;;;;;;16.10;93.80;;;;;;5012984;28;19975;-23
2022/09/30 10:36:56;;;;;;;;;;;16.10;93.80;;;;;;5012833;28;19905;-24
2022/09/30 10:39:27;;;;;;;;;;;16.10;93.80;;;;;;5011219;28;19968;-23
2022/09/30 10:42:06;;;;;;;;;;;16.10;93.80;;;;;;5012480;28;19905;-23
2022/09/30 10:44:41;;;;;;;;;;;16.20;93.80;;;;;;5012543;28;19905;-23
2022/09/30 10:47:07;;;;;;;;;;;16.10;93.80;;;;;;5012855;28;19909;-23
2022/09/30 10:49:42;;;;;;;;;;;16.20;93.80;;;;;;5012573;28;20007;-24
2022/09/30 10:52:15;;;;;;;;;;;16.10;92.70;;;;;;5010364;28;20008;-24
2022/09/30 10:54:49;;;;;;;;;;;16.00;92.70;;;;;;5012804;28;20417;-24
2022/09/30 10:57:19;;;;;;;;;;;16.00;92.90;;;;;;5011065;28;19912;-24
2022/09/30 10:59:45;;;;;;;;;;;15.90;93.00;;;;;;5011933;28;20449;-24
2022/09/30 11:02:12;;;;;;;;;;;16.00;93.10;;;;;;5012123;28;19917;-24
2022/09/30 11:04:43;;;;;;;;;;;16.00;93.20;;;;;;5012406;28;20303;-24
2022/09/30 11:07:29;;;;;;;;;;;16.00;93.20;;;;;;5012814;28;19905;-24
2022/09/30 11:10:03;;;;;;;;;;;16.10;93.30;;;;;;4981567;28;20413;-24
2022/09/30 11:12:42;;;;;;;;;;;16.10;93.30;;;;;;5012034;28;19905;-24
2022/09/30 11:15:20;;;;;;;;;;;16.10;93.30;;;;;;5012461;28;19905;-24
2022/09/30 11:17:46;;;;;;;;;;;16.10;93.40;;;;;;5012081;28;19916;-23
2022/09/30 11:20:20;;;;;;;;;;;16.10;93.40;;;;;;5011948;28;19980;-24
2022/09/30 11:23:01;;;;;;;;;;;16.10;93.40;;;;;;5011992;28;19960;-24
2022/09/30 11:25:35;;;;;;;;;;;16.10;93.50;;;;;;5010858;28;19947;-24
2022/09/30 11:28:03;;;;;;;;;;;16.10;93.50;;;;;;5012162;28;20385;-24
2022/09/30 11:30:35;;;;;;;;;;;16.00;93.20;;;;;;5012203;28;19948;-24
2022/09/30 11:33:03;;;;;;;;;;;15.90;91.50;;;;;;5010873;28;19905;-24
2022/09/30 11:35:40;;;;;;;;;;;15.80;91.30;;;;;;5011987;28;20003;-24
2022/09/30 11:38:16;;;;;;;;;;;15.70;91.70;;;;;;5011938;28;19909;-23
2022/09/30 11:40:44;;;;;;;;;;;15.70;92.00;;;;;;5011859;28;19956;-24
2022/09/30 11:43:35;;;;;;;;;;;15.80;92.30;;;;;;5011674;28;19905;-24
2022/09/30 11:46:16;;;;;;;;;;;15.80;92.40;;;;;;4988757;28;20398;-24
2022/09/30 11:49:02;;;;;;;;;;;15.80;92.40;;;;;;5011733;28;20422;-24
2022/09/30 11:51:31;;;;;;;;;;;15.80;92.50;;;;;;5000907;28;19905;-24
2022/09/30 11:53:56;;;;;;;;;;;15.80;92.70;;;;;;5011625;28;19905;-23
2022/09/30 11:56:21;;;;;;;;;;;15.90;92.70;;;;;;5011616;28;20374;-24
2022/09/30 11:58:49;;;;;;;;;;;15.80;90.90;;;;;;5011424;28;19919;-24
2022/09/30 12:01:31;;;;;;;;;;;15.70;90.60;;;;;;5011566;28;19940;-24
2022/09/30 12:03:59;;;;;;;;;;;15.60;90.70;;;;;;5011733;28;19960;-24
2022/09/30 12:06:37;;;;;;;;;;;15.60;91.00;;;;;;5011648;28;19905;-24
2022/09/30 12:09:11;;;;;;;;;;;15.60;91.20;;;;;;5011480;28;19910;-24
2022/09/30 12:11:37;;;;;;;;;;;15.60;91.30;;;;;;5011511;28;19910;-24
2022/09/30 12:14:06;;;;;;;;;;;15.70;91.50;;;;;;5011563;28;19964;-23
2022/09/30 12:16:33;;;;;;;;;;;15.60;91.60;;;;;;5011571;28;19909;-24
2022/09/30 12:19:08;;;;;;;;;;;15.70;91.70;;;;;;5011937;28;19914;-23
2022/09/30 12:21:34;;;;;;;;;;;15.60;91.40;;;;;;5012097;28;19905;-23
2022/09/30 12:24:04;;;;;;;;;;;15.60;91.10;;;;;;5015339;28;19960;-23
2022/09/30 12:26:30;;;;;;;;;;;15.60;91.20;;;;;;5015123;28;19910;-23
2022/09/30 12:32:05;;;;;;;;;;;15.60;91.40;;;;;;5014896;28;19959;-23
2022/09/30 12:34:30;;;;;;;;;;;15.60;91.50;;;;;;5015158;28;20037;-23
2022/09/30 12:37:02;;;;;;;;;;;15.60;91.60;;;;;;5013593;28;20358;-23
2022/09/30 12:39:37;;;;;;;;;;;15.60;91.70;;;;;;5014632;28;19909;-23
2022/09/30 12:42:23;;;;;;;;;;;15.60;91.80;;;;;;5014609;28;19913;-23
2022/09/30 12:45:07;;;;;;;;;;;15.60;91.90;;;;;;5014309;28;19968;-23
2022/09/30 12:47:59;;;;;;;;;;;15.60;92.00;;;;;;5014630;28;19937;-23
2022/09/30 12:50:28;;;;;;;;;;;15.60;92.00;;;;;;5011323;28;19905;-23
2022/09/30 12:52:56;;;;;;;;;;;15.60;92.20;;;;;;5014741;28;19906;-23
2022/09/30 12:55:27;;;;;;;;;;;15.70;92.10;;;;;;5014617;28;20326;-23
2022/09/30 12:57:53;;;;;;;;;;;15.70;92.20;;;;;;5014509;28;19909;-23
2022/09/30 13:00:23;;;;;;;;;;;15.70;92.20;;;;;;5014388;28;19905;-23
2022/09/30 13:02:56;;;;;;;;;;;15.70;92.20;;;;;;5014820;28;19936;-23
2022/09/30 13:05:25;;;;;;;;;;;15.70;92.20;;;;;;5014759;28;20350;-23
2022/09/30 13:08:05;;;;;;;;;;;15.70;92.30;;;;;;5014436;28;19909;-24
2022/09/30 13:10:37;;;;;;;;;;;15.70;92.30;;;;;;5014257;28;19913;-23
2022/09/30 13:13:11;;;;;;;;;;;15.80;92.30;;;;;;5014235;28;19965;-23
2022/09/30 13:15:37;;;;;;;;;;;15.80;92.40;;;;;;5014367;28;19913;-23
2022/09/30 13:18:29;;;;;;;;;;;15.80;92.40;;;;;;5012842;28;20248;-23
2022/09/30 13:21:03;;;;;;;;;;;15.80;92.40;;;;;;5013898;28;19944;-23
2022/09/30 13:23:35;;;;;;;;;;;15.80;92.40;;;;;;5014962;28;20434;-23
2022/09/30 13:26:04;;;;;;;;;;;15.80;92.40;;;;;;5015318;28;20402;-23
2022/09/30 13:28:36;;;;;;;;;;;15.90;92.40;;;;;;5014568;28;19905;-23
2022/09/30 13:31:18;;;;;;;;;;;15.90;92.40;;;;;;5013873;28;19956;-23
2022/09/30 13:33:44;;;;;;;;;;;15.90;92.40;;;;;;5012604;28;19912;-23
2022/09/30 13:36:16;;;;;;;;;;;15.80;92.40;;;;;;5013678;28;19905;-23
2022/09/30 13:38:41;;;;;;;;;;;15.90;92.50;;;;;;5013630;28;19915;-24
2022/09/30 13:41:14;;;;;;;;;;;15.90;92.50;;;;;;5013660;28;20350;-24
2022/09/30 13:43:46;;;;;;;;;;;15.90;92.40;;;;;;5013814;28;20409;-24
2022/09/30 13:46:21;;;;;;;;;;;15.90;92.50;;;;;;5013644;28;19905;-24
2022/09/30 13:48:50;;;;;;;;;;;15.90;92.50;;;;;;5013381;28;19909;-24
2022/09/30 13:51:17;;;;;;;;;;;15.90;92.50;;;;;;5013383;28;19913;-24
2022/09/30 13:53:44;;;;;;;;;;;16.00;92.50;;;;;;5013476;28;19909;-24
2022/09/30 13:56:18;;;;;;;;;;;16.00;92.50;;;;;;5013431;28;19905;-24
2022/09/30 13:58:56;;;;;;;;;;;16.00;92.50;;;;;;5011894;28;19909;-24
2022/09/30 14:01:41;;;;;;;;;;;16.00;92.50;;;;;;5013167;28;19910;-24
2022/09/30 14:04:10;;;;;;;;;;;16.00;92.50;;;;;;5013430;28;20029;-24
2022/09/30 14:06:55;;;;;;;;;;;16.00;92.50;;;;;;5013287;28;19956;-24
2022/09/30 14:09:46;;;;;;;;;;;16.00;92.50;;;;;;5012980;28;19910;-24
2022/09/30 14:12:17;;;;;;;;;;;16.00;92.60;;;;;;5013059;28;20363;-24
2022/09/30 14:15:01;;;;;;;;;;;16.00;92.60;;;;;;5013253;28;19968;-24
2022/09/30 14:17:31;;;;;;;;;;;15.90;92.60;;;;;;5013076;28;20003;-24
2022/09/30 14:20:11;;;;;;;;;;;16.00;92.60;;;;;;5012802;28;19928;-24
2022/09/30 14:22:37;;;;;;;;;;;16.00;92.60;;;;;;5013009;28;20428;-24
2022/09/30 14:25:03;;;;;;;;;;;16.00;92.60;;;;;;5012911;28;20003;-24
2022/09/30 14:27:35;;;;;;;;;;;16.00;92.60;;;;;;5013051;28;19912;-24
2022/09/30 14:30:00;;;;;;;;;;;16.10;92.60;;;;;;5012858;28;19971;-24
2022/09/30 14:32:30;;;;;;;;;;;16.00;92.60;;;;;;5012603;28;19948;-24
2022/09/30 14:34:57;;;;;;;;;;;16.00;92.60;;;;;;5012808;28;20008;-24
2022/09/30 14:37:30;;;;;;;;;;;16.00;92.60;;;;;;5011419;28;19905;-24
2022/09/30 14:39:56;;;;;;;;;;;16.10;92.70;;;;;;5011260;28;19913;-24
2022/09/30 14:42:32;;;;;;;;;;;16.10;92.60;;;;;;5012454;28;19913;-24